Time;durP1;ratioP1;P1;durP2;ratioP2;P2;SDS_P1;SDS_P2;PMS_P1;PMS_P2;Temp;Humidity;BMP_temperature;BMP_pressure;BME280_temperature;BME280_humidity;BME280_pressure;Samples;Min_cycle;Max_cycle;Signal;HPM_P1;HPM_P2
2022/05/06 00:02:24;;;;;;;;;;;;;;;7.31;100.00;100981.06;1751272;81;20111;-73
2022/05/06 00:04:51;;;;;;;;;;;;;;;7.29;100.00;100979.46;1751461;82;20426;-73
2022/05/06 00:07:18;;;;;;;;;;;;;;;7.24;100.00;100982.52;1751314;82;20099;-73
2022/05/06 00:09:45;;;;;;;;;;;;;;;7.20;100.00;100976.54;1751314;82;20111;-73
2022/05/06 00:12:13;;;;;;;;;;;;;;;7.18;100.00;100981.20;1751242;82;20403;-72
2022/05/06 00:14:41;;;;;;;;;;;;;;;7.14;100.00;100979.75;1751344;81;20162;-71
2022/05/06 00:17:08;;;;;;;;;;;;;;;7.11;100.00;100989.91;1751556;81;20122;-72
2022/05/06 00:19:37;;;;;;;;;;;;;;;7.07;100.00;100987.95;1750046;82;20130;-73
2022/05/06 00:22:04;;;;;;;;;;;;;;;7.02;100.00;100995.05;1751962;82;20098;-71
2022/05/06 00:24:31;;;;;;;;;;;;;;;7.00;100.00;100990.78;1752987;82;20088;-72
2022/05/06 00:26:58;;;;;;;;;;;;;;;6.98;100.00;100991.41;1752101;81;20098;-72
2022/05/06 00:29:26;;;;;;;;;;;;;;;6.96;100.00;100992.02;1751669;81;20146;-72
2022/05/06 00:31:53;;;;;;;;;;;;;;;6.93;100.00;100986.88;1751532;82;20098;-72
2022/05/06 00:34:20;;;;;;;;;;;;;;;6.91;100.00;100991.03;1749264;82;20096;-71
2022/05/06 00:36:48;;;;;;;;;;;;;;;6.89;100.00;100988.97;1744163;82;20111;-73
2022/05/06 00:39:15;;;;;;;;;;;;;;;6.87;100.00;100992.73;1743998;82;20222;-72
2022/05/06 00:41:43;;;;;;;;;;;;;;;6.86;100.00;100993.23;1743400;82;20130;-72
2022/05/06 00:44:10;;;;;;;;;;;;;;;6.84;100.00;100993.86;1743170;82;20111;-73
2022/05/06 00:46:37;;;;;;;;;;;;;;;6.81;100.00;100994.94;1744725;82;20424;-71
2022/05/06 00:49:08;;;;;;;;;;;;;;;6.81;100.00;100996.28;1751942;82;20105;-73
2022/05/06 00:51:35;;;;;;;;;;;;;;;6.82;100.00;100999.84;1775899;81;20418;-73
2022/05/06 00:54:02;;;;;;;;;;;;;;;6.83;100.00;100997.52;1775871;81;20101;-72
2022/05/06 00:56:29;;;;;;;;;;;;;;;6.81;100.00;100996.78;1775842;81;20126;-73
2022/05/06 00:58:56;;;;;;;;;;;;;;;6.78;100.00;101002.39;1775877;81;20464;-71
2022/05/06 01:01:23;;;;;;;;;;;;;;;6.78;100.00;101007.77;1775898;81;20125;-71
2022/05/06 01:03:50;;;;;;;;;;;;;;;6.74;100.00;101003.13;1775707;81;20108;-72
2022/05/06 01:06:18;;;;;;;;;;;;;;;6.73;100.00;101004.13;1775835;81;20420;-71
2022/05/06 01:08:47;;;;;;;;;;;;;;;6.72;100.00;101003.75;1775578;81;20105;-73
2022/05/06 01:11:14;;;;;;;;;;;;;;;6.72;100.00;101004.25;1775804;81;20105;-72
2022/05/06 01:13:43;;;;;;;;;;;;;;;6.72;100.00;101002.91;1775713;81;20097;-72
2022/05/06 01:16:12;;;;;;;;;;;;;;;6.71;100.00;101009.24;1775831;81;20081;-72
2022/05/06 01:18:43;;;;;;;;;;;;;;;6.69;100.00;101013.89;1771950;81;20884;-72
2022/05/06 01:21:10;;;;;;;;;;;;;;;6.66;100.00;101006.94;1776089;81;20144;-72
2022/05/06 01:23:38;;;;;;;;;;;;;;;6.63;100.00;101008.52;1775888;81;20153;-72
2022/05/06 01:26:06;;;;;;;;;;;;;;;6.59;100.00;100997.66;1776069;81;20404;-73
2022/05/06 01:28:35;;;;;;;;;;;;;;;6.55;100.00;101011.83;1775713;81;20117;-72
2022/05/06 01:31:02;;;;;;;;;;;;;;;6.52;100.00;101007.19;1776096;81;20126;-71
2022/05/06 01:33:30;;;;;;;;;;;;;;;6.53;100.00;101011.06;1775669;81;20101;-71
2022/05/06 01:35:59;;;;;;;;;;;;;;;6.54;100.00;101012.79;1775843;81;20112;-71
2022/05/06 01:38:28;;;;;;;;;;;;;;;6.53;100.00;101008.38;1775710;81;20136;-72
2022/05/06 01:40:59;;;;;;;;;;;;;;;6.54;100.00;101011.45;1772679;81;20167;-74
2022/05/06 01:43:34;;;;;;;;;;;;;;;6.55;100.00;101006.91;1767650;81;20128;-73
2022/05/06 01:46:02;;;;;;;;;;;;;;;6.53;100.00;101003.00;1745894;81;20097;-72
2022/05/06 01:48:29;;;;;;;;;;;;;;;6.51;100.00;101007.65;1764989;81;20128;-73
2022/05/06 01:50:56;;;;;;;;;;;;;;;6.50;100.00;101011.80;1760896;82;20120;-72
2022/05/06 01:53:24;;;;;;;;;;;;;;;6.48;100.00;101012.41;1760500;80;20117;-71
2022/05/06 01:55:52;;;;;;;;;;;;;;;6.45;100.00;101015.71;1732095;82;20096;-72
2022/05/06 01:58:21;;;;;;;;;;;;;;;6.45;100.00;101013.02;1756231;82;20100;-73
2022/05/06 02:00:49;;;;;;;;;;;;;;;6.45;100.00;101016.20;1690360;85;20132;-72
2022/05/06 02:06:05;;;;;;;;;;;;;;;6.44;100.00;101016.67;1666119;86;20142;-73
2022/05/06 02:08:35;;;;;;;;;;;;;;;6.44;100.00;101022.55;1666166;86;20110;-71
2022/05/06 02:11:02;;;;;;;;;;;;;;;6.42;100.00;101021.81;1665979;86;20110;-71
2022/05/06 02:13:29;;;;;;;;;;;;;;;6.39;100.00;101022.92;1666558;86;20118;-72
2022/05/06 02:16:04;;;;;;;;;;;;;;;6.35;100.00;101031.33;1614796;89;20122;-72
2022/05/06 02:18:42;;;;;;;;;;;;;;;6.31;100.00;101037.92;1614501;89;20435;-73
2022/05/06 02:21:23;;;;;;;;;;;;;;;6.26;100.00;101039.12;1614284;89;20122;-71
2022/05/06 02:23:55;;;;;;;;;;;;;;;6.22;100.00;101039.00;1616995;88;20114;-72
2022/05/06 02:26:29;;;;;;;;;;;;;;;6.21;100.00;101041.80;1613882;88;20115;-72
2022/05/06 02:28:58;;;;;;;;;;;;;;;6.20;100.00;101050.84;1613837;88;20446;-72
2022/05/06 02:34:16;;;;;;;;;;;;;;;6.18;100.00;101046.93;1608463;89;20137;-71
2022/05/06 02:36:41;;;;;;;;;;;;;;;6.18;100.00;101056.80;1590860;90;20429;-73
2022/05/06 02:39:10;;;;;;;;;;;;;;;6.17;100.00;101061.81;1591094;90;20393;-72
2022/05/06 02:41:37;;;;;;;;;;;;;;;6.15;100.00;101062.42;1579200;90;20121;-73
2022/05/06 02:44:05;;;;;;;;;;;;;;;6.14;100.00;101064.73;1577891;91;20121;-72
2022/05/06 02:46:36;;;;;;;;;;;;;;;6.12;100.00;101075.58;1576042;91;20130;-74
2022/05/06 02:49:04;;;;;;;;;;;;;;;6.12;100.00;101067.53;1584107;91;20124;-72
2022/05/06 02:51:32;;;;;;;;;;;;;;;6.15;100.00;101069.14;1584032;91;20405;-71
2022/05/06 02:54:00;;;;;;;;;;;;;;;6.17;100.00;101072.56;1584520;91;20397;-73
2022/05/06 02:56:30;;;;;;;;;;;;;;;6.17;100.00;101070.72;1547078;91;20148;-73
2022/05/06 02:58:59;;;;;;;;;;;;;;;6.17;100.00;101072.56;1583136;90;20459;-73
2022/05/06 03:01:29;;;;;;;;;;;;;;;6.15;100.00;101079.38;1547070;91;20413;-72
2022/05/06 03:03:57;;;;;;;;;;;;;;;6.16;100.00;101080.23;1583099;90;20122;-72
2022/05/06 03:06:24;;;;;;;;;;;;;;;6.15;100.00;101086.09;1644501;86;20116;-71
2022/05/06 03:08:52;;;;;;;;;;;;;;;6.15;100.00;101090.13;1673708;86;20462;-73
2022/05/06 03:11:20;;;;;;;;;;;;;;;6.16;100.00;101086.94;1673476;86;20416;-73
2022/05/06 03:13:49;;;;;;;;;;;;;;;6.16;100.00;101092.31;1673901;85;20436;-73
2022/05/06 03:16:19;;;;;;;;;;;;;;;6.16;100.00;101089.17;1673797;86;20137;-73
2022/05/06 03:18:46;;;;;;;;;;;;;;;6.17;100.00;101095.38;1673771;86;20448;-72
2022/05/06 03:21:13;;;;;;;;;;;;;;;6.19;100.00;101097.46;1673697;84;20104;-72
2022/05/06 03:23:40;;;;;;;;;;;;;;;6.22;100.00;101102.61;1673740;85;20104;-72
2022/05/06 03:26:07;;;;;;;;;;;;;;;6.24;100.00;101106.03;1673410;86;20125;-72
2022/05/06 03:28:35;;;;;;;;;;;;;;;6.27;100.00;101101.77;1673593;86;20148;-72
2022/05/06 03:31:03;;;;;;;;;;;;;;;6.30;100.00;101109.57;1673458;86;20172;-71
2022/05/06 03:33:33;;;;;;;;;;;;;;;6.34;100.00;101107.51;1673854;86;20133;-72
2022/05/06 03:36:02;;;;;;;;;;;;;;;6.36;100.00;101109.12;1673460;86;20104;-73
2022/05/06 03:38:31;;;;;;;;;;;;;;;6.38;100.00;101109.85;1672377;84;20425;-72
2022/05/06 03:40:58;;;;;;;;;;;;;;;6.41;100.00;101117.69;1677643;85;20136;-73
2022/05/06 03:43:27;;;;;;;;;;;;;;;6.44;100.00;101116.08;1680811;85;20409;-73
2022/05/06 03:45:55;;;;;;;;;;;;;;;6.49;100.00;101118.42;1666894;86;20117;-73
2022/05/06 03:48:24;;;;;;;;;;;;;;;6.53;100.00;101121.73;1681226;85;20390;-73
2022/05/06 03:53:38;;;;;;;;;;;;;;;6.59;100.00;101125.31;1726097;82;20096;-72
2022/05/06 03:56:06;;;;;;;;;;;;;;;6.65;100.00;101131.53;1731111;83;20416;-72
2022/05/06 03:58:35;;;;;;;;;;;;;;;6.69;100.00;101126.28;1750573;82;20119;-73
2022/05/06 04:01:04;;;;;;;;;;;;;;;6.75;100.00;101122.28;1750286;82;20397;-71
2022/05/06 04:03:31;;;;;;;;;;;;;;;6.80;100.00;101129.01;1750131;82;20152;-72
2022/05/06 04:05:58;;;;;;;;;;;;;;;6.87;100.00;101131.20;1731220;83;20112;-71
2022/05/06 04:08:26;;;;;;;;;;;;;;;6.93;100.00;101128.89;1750316;81;20156;-71
2022/05/06 04:10:54;;;;;;;;;;;;;;;7.00;100.00;101136.84;1731009;83;20099;-72
2022/05/06 04:13:22;;;;;;;;;;;;;;;7.09;100.00;101139.30;1750492;82;20377;-70
2022/05/06 04:15:50;;;;;;;;;;;;;;;7.18;100.00;101136.36;1731316;83;20104;-72
2022/05/06 04:18:17;;;;;;;;;;;;;;;7.27;100.00;101122.67;1750675;82;20171;-71
2022/05/06 04:23:34;;;;;;;;;;;;;;;7.44;100.00;101123.98;1750733;82;20101;-73
2022/05/06 04:26:08;;;;;;;;;;;;;;;7.55;100.00;101130.21;1653087;87;20146;-73
2022/05/06 04:28:36;;;;;;;;;;;;;;;7.67;100.00;101131.06;1661649;85;20136;-72
2022/05/06 04:31:05;;;;;;;;;;;;;;;7.77;100.00;101137.88;1661438;86;20405;-73
2022/05/06 04:33:36;;;;;;;;;;;;;;;7.88;100.00;101139.21;1667713;86;20126;-73
2022/05/06 04:36:04;;;;;;;;;;;;;;;8.00;100.00;101138.66;1669610;86;20113;-72
2022/05/06 04:38:32;;;;;;;;;;;;;;;8.14;100.00;101143.78;1669321;86;20159;-72
2022/05/06 04:41:00;;;;;;;;;;;;;;;8.32;100.00;101144.55;1670110;86;20095;-71
2022/05/06 04:43:29;;;;;;;;;;;;;;;8.47;100.00;101146.48;1692826;85;20123;-72
2022/05/06 04:45:56;;;;;;;;;;;;;;;8.62;100.00;101152.39;1659529;85;20168;-72
2022/05/06 04:48:24;;;;;;;;;;;;;;;8.72;100.00;101158.22;1668101;86;20124;-72
2022/05/06 04:50:51;;;;;;;;;;;;;;;8.79;100.00;101165.29;1692588;85;20127;-72
2022/05/06 04:53:18;;;;;;;;;;;;;;;8.87;100.00;101156.53;1659068;87;20166;-72
2022/05/06 04:55:50;;;;;;;;;;;;;;;8.99;100.00;101159.51;1690589;84;20178;-71
2022/05/06 04:58:19;;;;;;;;;;;;;;;9.11;100.00;101163.84;1658875;87;20471;-72
2022/05/06 05:00:47;;;;;;;;;;;;;;;9.28;100.00;101169.63;1690391;85;20170;-71
2022/05/06 05:03:14;;;;;;;;;;;;;;;9.40;100.00;101164.49;1659041;87;20129;-72
2022/05/06 05:05:41;;;;;;;;;;;;;;;9.56;100.00;101163.98;1690547;85;20143;-71
2022/05/06 05:08:09;;;;;;;;;;;;;;;9.71;100.00;101162.24;1659005;85;20104;-71
2022/05/06 05:10:37;;;;;;;;;;;;;;;9.80;100.00;101164.95;1692678;85;20166;-73
2022/05/06 05:13:07;;;;;;;;;;;;;;;9.96;100.00;101159.02;1692321;85;20142;-72
2022/05/06 05:15:35;;;;;;;;;;;;;;;10.15;100.00;101160.05;1692583;85;20482;-72
2022/05/06 05:18:04;;;;;;;;;;;;;;;10.32;98.43;101159.35;1691153;85;20128;-73
2022/05/06 05:20:33;;;;;;;;;;;;;;;10.44;97.17;101164.97;1669846;85;20440;-72
2022/05/06 05:23:01;;;;;;;;;;;;;;;10.61;96.56;101165.27;1723886;82;20403;-74
2022/05/06 05:25:28;;;;;;;;;;;;;;;10.77;95.08;101161.98;1743093;82;20166;-74
2022/05/06 05:27:56;;;;;;;;;;;;;;;10.90;93.32;101163.86;1742714;82;20158;-74
2022/05/06 05:30:24;;;;;;;;;;;;;;;11.05;93.95;101163.39;1744046;81;20424;-72
2022/05/06 05:32:52;;;;;;;;;;;;;;;11.29;94.97;101165.61;1743430;82;20415;-71
2022/05/06 05:35:19;;;;;;;;;;;;;;;11.54;93.30;101169.00;1777858;80;20100;-72
2022/05/06 05:37:48;;;;;;;;;;;;;;;11.77;92.27;101164.03;1786696;80;20104;-71
2022/05/06 05:40:15;;;;;;;;;;;;;;;12.00;90.32;101168.20;1790469;80;20135;-72
2022/05/06 05:42:43;;;;;;;;;;;;;;;12.20;89.59;101172.97;1779237;81;20101;-72
2022/05/06 05:50:44;;;;;;;;;;;;;;;12.64;84.30;101167.61;1728557;83;20148;-72
2022/05/06 05:53:12;;;;;;;;;;;;;;;12.72;81.46;101165.81;1729374;83;20121;-73
2022/05/06 05:55:41;;;;;;;;;;;;;;;12.82;81.25;101163.50;1730308;83;20100;-73
2022/05/06 05:58:10;;;;;;;;;;;;;;;12.94;79.87;101160.88;1728499;82;20132;-72
2022/05/06 06:00:37;;;;;;;;;;;;;;;13.00;79.26;101164.33;1728931;83;20105;-73
2022/05/06 06:03:04;;;;;;;;;;;;;;;13.14;78.93;101168.33;1729006;83;20400;-72
2022/05/06 06:05:33;;;;;;;;;;;;;;;13.27;77.15;101165.17;1729382;83;20113;-72
2022/05/06 06:08:01;;;;;;;;;;;;;;;13.43;77.82;101175.30;1728861;83;20410;-73
2022/05/06 06:10:28;;;;;;;;;;;;;;;13.64;75.97;101167.58;1728937;83;20101;-72
2022/05/06 06:12:58;;;;;;;;;;;;;;;13.74;74.10;101162.52;1728367;82;20144;-71
2022/05/06 06:15:25;;;;;;;;;;;;;;;13.81;74.90;101164.42;1728802;83;20117;-71
2022/05/06 06:17:52;;;;;;;;;;;;;;;14.00;73.43;101168.70;1729189;83;20109;-72
2022/05/06 06:20:21;;;;;;;;;;;;;;;14.21;72.01;101157.37;1728136;81;20116;-73
2022/05/06 06:22:49;;;;;;;;;;;;;;;14.44;70.96;101157.56;1608709;85;20099;-74
2022/05/06 06:25:16;;;;;;;;;;;;;;;14.67;65.91;101165.61;1606714;89;20103;-72
2022/05/06 06:27:52;;;;;;;;;;;;;;;14.75;61.76;101162.86;1607313;89;20201;-75
2022/05/06 06:30:20;;;;;;;;;;;;;;;14.77;61.03;101158.13;1606697;88;20120;-73
2022/05/06 06:32:53;;;;;;;;;;;;;;;14.94;63.81;101155.73;1606654;89;20118;-71
2022/05/06 06:35:25;;;;;;;;;;;;;;;15.16;62.21;101162.31;1606360;89;20141;-73
2022/05/06 06:37:54;;;;;;;;;;;;;;;15.46;60.95;101159.84;1606621;89;20195;-73
2022/05/06 06:40:23;;;;;;;;;;;;;;;15.69;59.77;101164.01;1606437;89;20145;-74
2022/05/06 06:42:53;;;;;;;;;;;;;;;15.91;58.37;101167.00;1606530;89;20141;-74
2022/05/06 06:45:40;;;;;;;;;;;;;;;16.05;57.64;101162.66;1617412;88;20116;-71
2022/05/06 06:48:26;;;;;;;;;;;;;;;16.19;54.36;101163.25;1644420;86;20171;-71
2022/05/06 06:51:04;;;;;;;;;;;;;;;16.29;53.28;101167.12;1565171;92;20577;-73
2022/05/06 06:53:32;;;;;;;;;;;;;;;16.24;52.64;101164.92;1537933;93;20155;-71
2022/05/06 06:55:59;;;;;;;;;;;;;;;16.25;52.75;101164.40;1544658;93;20146;-73
2022/05/06 06:58:26;;;;;;;;;;;;;;;16.33;52.24;101163.83;1544396;93;20146;-73
2022/05/06 07:00:53;;;;;;;;;;;;;;;16.42;52.52;101167.35;1544300;93;20150;-72
2022/05/06 07:03:20;;;;;;;;;;;;;;;16.53;51.84;101163.34;1544702;92;20125;-72
2022/05/06 07:13:57;;;;;;;;;;;;;;;16.69;48.03;101161.83;1514386;94;20149;-72
2022/05/06 07:16:23;;;;;;;;;;;;;;;16.72;48.79;101152.44;1514771;95;20116;-72
2022/05/06 07:18:51;;;;;;;;;;;;;;;16.87;48.69;101165.66;1515085;95;20409;-71
2022/05/06 07:21:18;;;;;;;;;;;;;;;16.98;47.86;101165.72;1520650;93;20105;-72
2022/05/06 07:23:44;;;;;;;;;;;;;;;17.06;47.34;101160.16;1544839;93;20184;-72
2022/05/06 07:26:12;;;;;;;;;;;;;;;17.25;46.47;101156.03;1544566;93;20409;-72
2022/05/06 07:28:40;;;;;;;;;;;;;;;17.41;46.51;101148.16;1592035;89;20122;-71
2022/05/06 07:31:07;;;;;;;;;;;;;;;17.66;45.62;101150.59;1541355;93;20434;-72
2022/05/06 07:33:34;;;;;;;;;;;;;;;17.76;44.54;101147.55;1579272;89;20146;-72
2022/05/06 07:36:01;;;;;;;;;;;;;;;17.90;43.50;101149.46;1566626;90;20131;-72
2022/05/06 07:38:28;;;;;;;;;;;;;;;18.04;40.77;101149.06;1605005;89;20138;-70
2022/05/06 07:40:55;;;;;;;;;;;;;;;18.13;40.75;101148.43;1581829;89;20184;-73
2022/05/06 07:43:22;;;;;;;;;;;;;;;18.11;38.86;101152.72;1614823;89;20116;-74
2022/05/06 07:45:48;;;;;;;;;;;;;;;17.95;39.25;101149.70;1617191;88;20112;-70
2022/05/06 07:48:15;;;;;;;;;;;;;;;17.92;38.98;101150.61;1657876;85;20163;-71
2022/05/06 07:50:44;;;;;;;;;;;;;;;18.01;40.11;101150.84;1691219;84;20111;-71
2022/05/06 07:53:12;;;;;;;;;;;;;;;18.09;38.31;101146.60;1691528;84;20107;-74
2022/05/06 07:55:39;;;;;;;;;;;;;;;17.90;38.25;101143.13;1691301;84;20103;-72
2022/05/06 07:58:05;;;;;;;;;;;;;;;17.84;39.30;101138.71;1691015;85;20107;-72
2022/05/06 08:00:32;;;;;;;;;;;;;;;17.94;38.90;101141.72;1663579;84;20111;-72
2022/05/06 08:05:47;;;;;;;;;;;;;;;17.97;40.75;101142.67;1651373;87;20138;-73
2022/05/06 08:08:14;;;;;;;;;;;;;;;18.28;41.72;101133.34;1672696;85;20126;-70
2022/05/06 08:10:41;;;;;;;;;;;;;;;18.74;42.58;101122.79;1690816;84;20100;-69
2022/05/06 08:13:09;;;;;;;;;;;;;;;19.09;41.51;101125.61;1657243;84;20126;-69
2022/05/06 08:15:36;;;;;;;;;;;;;;;19.31;39.35;101133.75;1660214;85;20112;-73
2022/05/06 08:18:04;;;;;;;;;;;;;;;19.31;38.18;101131.84;1660928;84;20161;-71
2022/05/06 08:20:31;;;;;;;;;;;;;;;19.33;37.68;101131.65;1659930;85;20106;-72
2022/05/06 08:23:00;;;;;;;;;;;;;;;19.18;37.21;101130.41;1663976;86;20146;-74
2022/05/06 08:25:27;;;;;;;;;;;;;;;19.19;38.79;101132.09;1677153;85;20117;-71
2022/05/06 08:27:54;;;;;;;;;;;;;;;19.31;37.15;101131.84;1676629;86;20132;-72
2022/05/06 08:30:20;;;;;;;;;;;;;;;19.18;36.72;101126.30;1647918;87;20168;-72
2022/05/06 08:32:48;;;;;;;;;;;;;;;19.29;38.77;101120.77;1633475;87;20118;-71
2022/05/06 08:35:14;;;;;;;;;;;;;;;19.68;37.91;101127.50;1678454;85;20139;-71
2022/05/06 08:37:46;;;;;;;;;;;;;;;19.74;36.18;101132.19;1678968;84;20131;-72
2022/05/06 08:40:20;;;;;;;;;;;;;;;19.45;35.86;101128.66;1691269;84;20104;-73
2022/05/06 08:42:47;;;;;;;;;;;;;;;19.44;37.56;101120.63;1691035;84;20154;-74
2022/05/06 08:50:53;;;;;;;;;;;;;;;20.14;36.07;101118.59;1678963;85;20168;-73
2022/05/06 08:53:23;;;;;;;;;;;;;;;20.08;35.71;101113.41;1677267;85;20197;-70
2022/05/06 08:55:50;;;;;;;;;;;;;;;20.04;35.30;101112.65;1649884;86;20111;-74
2022/05/06 08:58:17;;;;;;;;;;;;;;;19.98;35.02;101112.13;1691720;85;20151;-71
2022/05/06 09:00:44;;;;;;;;;;;;;;;20.05;34.76;101118.47;1668817;84;20197;-72
2022/05/06 09:03:13;;;;;;;;;;;;;;;20.03;35.44;101117.84;1677162;85;20117;-72
2022/05/06 09:05:55;;;;;;;;;;;;;;;20.05;35.56;101106.12;1676837;84;20113;-74
2022/05/06 09:08:21;;;;;;;;;;;;;;;20.26;36.43;101107.31;1648280;87;20165;-73
2022/05/06 09:11:04;;;;;;;;;;;;;;;20.50;34.92;101109.12;1654588;87;20613;-74
2022/05/06 09:13:32;;;;;;;;;;;;;;;20.56;34.48;101117.91;1677736;85;20174;-74
2022/05/06 09:19:22;;;;;;;;;;;;;;;20.28;34.70;101123.05;1674681;86;20135;-77
2022/05/06 09:22:05;;;;;;;;;;;;;;;20.38;34.27;101116.29;1673952;86;20119;-73
2022/05/06 09:24:33;;;;;;;;;;;;;;;20.46;34.64;101116.94;1636254;87;20398;-74
2022/05/06 09:27:05;;;;;;;;;;;;;;;20.61;34.95;101109.02;1628179;87;20408;-73
2022/05/06 09:29:43;;;;;;;;;;;;;;;20.84;33.46;101114.97;1646923;87;20158;-74
2022/05/06 09:32:19;;;;;;;;;;;;;;;20.61;32.88;101108.54;1617779;87;22378;-73
2022/05/06 09:34:49;;;;;;;;;;;;;;;20.27;32.22;101106.78;1625272;87;20449;-74
2022/05/06 09:37:36;;;;;;;;;;;;;;;20.12;33.93;101097.37;1601656;90;20239;-73
2022/05/06 09:40:15;;;;;;;;;;;;;;;20.25;33.17;101101.48;1588518;90;20169;-73
2022/05/06 09:42:44;;;;;;;;;;;;;;;20.30;33.89;101111.86;1582763;90;20162;-74
2022/05/06 09:45:13;;;;;;;;;;;;;;;20.54;34.08;101101.30;1572914;91;20122;-73
2022/05/06 09:47:40;;;;;;;;;;;;;;;20.71;34.58;101099.85;1589634;90;20161;-73
2022/05/06 09:50:08;;;;;;;;;;;;;;;20.96;33.96;101112.40;1577665;90;20428;-75
2022/05/06 09:52:36;;;;;;;;;;;;;;;21.08;32.81;101099.39;1586548;90;20122;-75
2022/05/06 09:55:05;;;;;;;;;;;;;;;21.17;32.60;101112.68;1588894;90;20400;-76
2022/05/06 09:57:35;;;;;;;;;;;;;;;21.20;32.20;101108.67;1589256;90;20111;-73
2022/05/06 10:00:03;;;;;;;;;;;;;;;21.38;33.29;101092.84;1579618;90;20179;-72
2022/05/06 10:02:31;;;;;;;;;;;;;;;21.70;33.55;101103.97;1593910;90;20110;-75
2022/05/06 10:04:59;;;;;;;;;;;;;;;21.89;32.84;101102.19;1576725;90;20119;-74
2022/05/06 10:07:26;;;;;;;;;;;;;;;22.00;32.41;101099.55;1566311;92;20110;-75
2022/05/06 10:10:01;;;;;;;;;;;;;;;22.26;32.38;101101.00;1566433;92;20152;-76
2022/05/06 10:12:31;;;;;;;;;;;;;;;22.40;31.99;101097.11;1575408;90;20112;-74
2022/05/06 10:15:02;;;;;;;;;;;;;;;22.51;31.92;101095.00;1611542;89;20157;-76
2022/05/06 10:17:49;;;;;;;;;;;;;;;22.57;31.63;101090.49;1621217;87;20118;-73
2022/05/06 10:23:08;;;;;;;;;;;;;;;22.36;30.88;101078.81;1584210;90;20120;-74
2022/05/06 10:25:43;;;;;;;;;;;;;;;22.33;31.15;101086.68;1574469;91;20145;-74
2022/05/06 10:34:16;;;;;;;;;;;;;;;21.76;30.58;101095.69;1590779;87;20489;-72
2022/05/06 10:36:46;;;;;;;;;;;;;;;21.82;30.49;101086.23;1638659;87;20452;-76
2022/05/06 10:39:25;;;;;;;;;;;;;;;21.66;30.40;101096.68;1621199;87;20152;-75
2022/05/06 10:42:03;;;;;;;;;;;;;;;21.57;30.23;101085.62;1610811;87;20111;-74
2022/05/06 10:44:37;;;;;;;;;;;;;;;21.58;30.96;101076.28;1623180;87;20107;-73
2022/05/06 10:47:06;;;;;;;;;;;;;;;21.80;30.91;101076.82;1633105;87;20141;-74
2022/05/06 10:52:27;;;;;;;;;;;;;;;21.74;31.96;101073.55;1572209;91;20118;-70
2022/05/06 10:54:54;;;;;;;;;;;;;;;22.11;31.84;101076.52;1554117;91;20116;-73
2022/05/06 10:57:23;;;;;;;;;;;;;;;22.41;31.49;101073.15;1567384;91;20106;-72
2022/05/06 10:59:57;;;;;;;;;;;;;;;22.47;30.69;101066.72;1533217;93;20131;-74
2022/05/06 11:02:28;;;;;;;;;;;;;;;22.50;29.89;101063.53;1532069;93;20121;-73
2022/05/06 11:04:57;;;;;;;;;;;;;;;22.52;30.22;101058.12;1525924;93;20115;-72
2022/05/06 11:07:24;;;;;;;;;;;;;;;22.31;29.67;101066.75;1530227;93;20142;-72
2022/05/06 11:09:51;;;;;;;;;;;;;;;22.23;31.03;101058.75;1524350;93;20203;-72
2022/05/06 11:12:40;;;;;;;;;;;;;;;22.28;30.04;101056.20;1541374;93;20196;-71
2022/05/06 11:15:15;;;;;;;;;;;;;;;22.31;30.80;101058.48;1529279;93;20194;-71
2022/05/06 11:17:42;;;;;;;;;;;;;;;22.22;29.29;101061.17;1533678;93;20161;-72
2022/05/06 11:20:22;;;;;;;;;;;;;;;22.14;30.72;101063.14;1534663;93;20220;-73
2022/05/06 11:23:00;;;;;;;;;;;;;;;22.26;30.50;101057.77;1531865;92;20132;-73
2022/05/06 11:25:34;;;;;;;;;;;;;;;22.33;29.60;101057.20;1523069;94;20478;-72
2022/05/06 11:28:03;;;;;;;;;;;;;;;22.14;28.94;101054.04;1548972;91;20123;-73
2022/05/06 11:30:30;;;;;;;;;;;;;;;21.70;29.08;101054.42;1546116;91;20128;-74
2022/05/06 11:33:00;;;;;;;;;;;;;;;21.50;30.19;101064.17;1568436;91;20122;-72
2022/05/06 11:35:36;;;;;;;;;;;;;;;21.49;29.84;101058.34;1572150;91;20155;-74
2022/05/06 11:38:03;;;;;;;;;;;;;;;21.51;30.39;101047.41;1568446;91;20119;-70
2022/05/06 11:40:35;;;;;;;;;;;;;;;21.58;30.00;101040.00;1559336;91;20118;-71
2022/05/06 11:43:04;;;;;;;;;;;;;;;21.70;30.54;101036.53;1558530;91;20483;-71
2022/05/06 11:48:22;;;;;;;;;;;;;;;22.12;31.27;101033.61;1553565;90;20148;-72
2022/05/06 11:50:55;;;;;;;;;;;;;;;22.19;29.96;101034.94;1573479;91;20118;-71
2022/05/06 11:53:26;;;;;;;;;;;;;;;22.13;29.82;101034.44;1570508;91;20115;-72
2022/05/06 11:55:51;;;;;;;;;;;;;;;21.98;29.71;101023.75;1583140;87;20161;-70
2022/05/06 11:58:19;;;;;;;;;;;;;;;22.03;30.87;101026.69;1643354;87;20227;-74
2022/05/06 12:00:46;;;;;;;;;;;;;;;22.26;30.51;101023.33;1652482;86;20202;-74
2022/05/06 12:03:13;;;;;;;;;;;;;;;22.49;31.02;101016.39;1648779;86;20430;-73
2022/05/06 12:05:41;;;;;;;;;;;;;;;22.60;29.56;101004.61;1649777;86;20184;-73
2022/05/06 12:08:08;;;;;;;;;;;;;;;22.53;29.28;101003.29;1650525;86;20106;-68
2022/05/06 12:10:36;;;;;;;;;;;;;;;22.29;29.30;101009.66;1652894;86;20122;-68
2022/05/06 12:13:10;;;;;;;;;;;;;;;22.01;29.30;101017.81;1652083;86;20108;-67
2022/05/06 12:15:38;;;;;;;;;;;;;;;21.91;29.33;101014.70;1643192;86;20138;-67
2022/05/06 12:18:21;;;;;;;;;;;;;;;21.92;30.68;101012.24;1653018;86;20149;-68
2022/05/06 12:20:48;;;;;;;;;;;;;;;21.97;29.88;100998.66;1648842;86;20118;-67
2022/05/06 12:23:15;;;;;;;;;;;;;;;21.72;29.06;101004.13;1647827;86;20109;-67
2022/05/06 12:25:42;;;;;;;;;;;;;;;21.49;29.97;100997.81;1642244;87;20132;-66
2022/05/06 12:28:10;;;;;;;;;;;;;;;21.49;30.03;101001.94;1688488;85;20112;-68
2022/05/06 12:30:37;;;;;;;;;;;;;;;21.47;29.77;101006.28;1689539;85;20119;-67
2022/05/06 12:33:11;;;;;;;;;;;;;;;21.40;29.76;100998.56;1670835;86;20184;-68
2022/05/06 12:35:58;;;;;;;;;;;;;;;21.32;30.52;100995.54;1687372;85;20400;-65
2022/05/06 12:38:45;;;;;;;;;;;;;;;21.37;29.99;100998.48;1680390;85;20141;-66
2022/05/06 12:41:29;;;;;;;;;;;;;;;21.31;29.87;100988.34;1672769;85;20165;-67
2022/05/06 12:43:57;;;;;;;;;;;;;;;21.28;29.77;100992.06;1676870;84;20111;-72
2022/05/06 12:46:30;;;;;;;;;;;;;;;21.06;29.81;100996.49;1684428;84;20102;-72
2022/05/06 12:51:46;;;;;;;;;;;;;;;21.27;30.50;100991.77;1683302;84;20375;-71
2022/05/06 12:54:13;;;;;;;;;;;;;;;21.37;30.71;100994.86;1667351;86;20126;-72
2022/05/06 12:56:40;;;;;;;;;;;;;;;21.31;29.73;100988.34;1677906;84;20248;-71
2022/05/06 12:59:07;;;;;;;;;;;;;;;21.19;30.15;100985.96;1696280;84;20107;-72
2022/05/06 13:01:34;;;;;;;;;;;;;;;21.19;30.06;100986.80;1701156;84;20099;-73
2022/05/06 13:04:01;;;;;;;;;;;;;;;21.22;30.57;100980.87;1701375;84;20115;-72
2022/05/06 13:06:32;;;;;;;;;;;;;;;21.16;30.62;100983.13;1701134;84;20107;-71
2022/05/06 13:08:59;;;;;;;;;;;;;;;21.23;30.92;100979.81;1701085;84;20099;-71
2022/05/06 13:11:26;;;;;;;;;;;;;;;21.33;30.39;100981.25;1686469;84;20110;-72
2022/05/06 13:13:54;;;;;;;;;;;;;;;21.30;30.49;100981.67;1667715;86;20121;-72
2022/05/06 13:16:21;;;;;;;;;;;;;;;21.38;30.78;100989.14;1670969;84;20106;-71
2022/05/06 13:18:50;;;;;;;;;;;;;;;21.55;31.00;100974.93;1683121;84;20139;-72
2022/05/06 13:21:17;;;;;;;;;;;;;;;21.63;30.68;100976.56;1668315;86;20118;-72
2022/05/06 13:23:44;;;;;;;;;;;;;;;21.68;30.30;100970.70;1676949;84;20134;-72
2022/05/06 13:26:11;;;;;;;;;;;;;;;21.68;29.46;100978.12;1697960;84;20130;-70
2022/05/06 13:28:38;;;;;;;;;;;;;;;21.46;28.94;100974.34;1690764;84;20093;-71
2022/05/06 13:31:05;;;;;;;;;;;;;;;21.19;29.46;100970.30;1683529;84;20127;-72
2022/05/06 13:33:32;;;;;;;;;;;;;;;21.20;29.87;100966.50;1676267;86;20199;-71
2022/05/06 13:35:59;;;;;;;;;;;;;;;21.33;30.38;100966.95;1672510;86;20157;-71
2022/05/06 13:38:26;;;;;;;;;;;;;;;21.48;30.15;100968.09;1635096;87;20140;-71
2022/05/06 13:40:53;;;;;;;;;;;;;;;21.48;29.37;100966.70;1668090;85;20110;-73